createdAt,value
2018-07-26T00:01:49.215Z,98326.56
2018-07-26T00:04:18.077Z,98329.70
2018-07-26T00:06:48.241Z,98330.45
2018-07-26T00:09:16.785Z,98330.23
2018-07-26T00:11:45.310Z,98332.84
2018-07-26T00:14:14.099Z,98330.84
2018-07-26T00:16:42.553Z,98336.80
2018-07-26T00:19:11.063Z,98334.16
2018-07-26T00:21:39.667Z,98333.30
2018-07-26T00:24:08.266Z,98331.41
2018-07-26T00:26:36.861Z,98330.12
2018-07-26T00:29:05.450Z,98331.09
2018-07-26T00:31:34.032Z,98326.68
2018-07-26T00:34:02.710Z,98317.48
2018-07-26T00:36:31.226Z,98325.24
2018-07-26T00:38:59.763Z,98330.98
2018-07-26T00:41:28.318Z,98336.08
2018-07-26T00:43:57.006Z,98340.12
2018-07-26T00:46:25.470Z,98343.20
2018-07-26T00:48:54.322Z,98339.23
2018-07-26T00:51:22.960Z,98345.69
2018-07-26T00:53:51.493Z,98341.61
2018-07-26T00:56:19.995Z,98339.13
2018-07-26T00:58:48.580Z,98339.08
2018-07-26T01:01:17.326Z,98339.61
2018-07-26T01:03:45.882Z,98335.05
2018-07-26T01:06:14.414Z,98342.50
2018-07-26T01:08:42.942Z,98335.67
2018-07-26T01:11:11.442Z,98336.75
2018-07-26T01:13:39.998Z,98330.61
2018-07-26T01:16:08.474Z,98338.77
2018-07-26T01:18:37.094Z,98334.06
2018-07-26T01:21:05.733Z,98332.20
2018-07-26T01:23:34.214Z,98338.50
2018-07-26T01:26:02.710Z,98338.23
2018-07-26T01:28:31.249Z,98340.87
2018-07-26T01:30:59.833Z,98342.26
2018-07-26T01:33:28.341Z,98337.22
2018-07-26T01:35:56.847Z,98334.65
2018-07-26T01:38:25.382Z,98334.39
2018-07-26T01:40:54.078Z,98331.30
2018-07-26T01:43:50.112Z,98330.13
2018-07-26T01:46:20.465Z,98322.73
2018-07-26T01:48:48.927Z,98324.80
2018-07-26T01:51:17.565Z,98324.49
2018-07-26T01:53:46.475Z,98325.14
2018-07-26T02:02:54.350Z,98320.05
2018-07-26T02:05:22.999Z,98312.66
2018-07-26T02:07:51.643Z,98309.23
2018-07-26T02:10:20.226Z,98314.61
2018-07-26T02:12:48.706Z,98311.25
2018-07-26T02:15:17.284Z,98318.08
2018-07-26T02:17:45.960Z,98320.92
2018-07-26T02:20:14.502Z,98314.84
2018-07-26T02:22:43.078Z,98315.23
2018-07-26T02:25:11.730Z,98314.19
2018-07-26T02:27:40.338Z,98315.63
2018-07-26T02:30:08.799Z,98313.66
2018-07-26T02:32:37.434Z,98315.66
2018-07-26T02:35:06.174Z,98313.52
2018-07-26T02:37:39.277Z,98320.17
2018-07-26T02:40:07.898Z,98315.09
2018-07-26T02:42:36.502Z,98311.20
2018-07-26T02:45:05.065Z,98311.20
2018-07-26T02:47:33.590Z,98309.97
2018-07-26T02:50:02.133Z,98303.72
2018-07-26T02:52:30.658Z,98309.53
2018-07-26T02:54:59.134Z,98307.17
2018-07-26T02:57:27.687Z,98307.25
2018-07-26T02:59:56.323Z,98305.55
2018-07-26T03:02:25.154Z,98301.95
2018-07-26T03:04:53.742Z,98303.11
2018-07-26T03:07:22.290Z,98305.54
2018-07-26T03:09:50.943Z,98306.77
2018-07-26T03:12:19.434Z,98302.28
2018-07-26T03:14:47.903Z,98300.92
2018-07-26T03:17:16.550Z,98307.73
2018-07-26T03:19:45.635Z,98303.91
2018-07-26T03:22:14.205Z,98314.55
2018-07-26T03:24:42.810Z,98310.34
2018-07-26T03:27:11.756Z,98319.00
2018-07-26T03:29:40.219Z,98319.69
2018-07-26T03:32:10.220Z,98316.11
2018-07-26T03:34:38.885Z,98322.78
2018-07-26T03:37:07.445Z,98314.86
2018-07-26T03:39:35.907Z,98324.38
2018-07-26T03:42:04.383Z,98323.72
2018-07-26T03:44:37.212Z,98323.89
2018-07-26T03:47:06.519Z,98327.51
2018-07-26T03:49:35.102Z,98327.79
2018-07-26T03:52:03.652Z,98322.83
2018-07-26T03:54:32.762Z,98324.11
2018-07-26T03:57:01.440Z,98315.25
2018-07-26T03:59:30.032Z,98327.13
2018-07-26T04:01:58.624Z,98325.33
2018-07-26T04:04:27.214Z,98331.44
2018-07-26T04:06:55.888Z,98339.19
2018-07-26T04:09:24.443Z,98344.16
2018-07-26T04:11:52.983Z,98342.38
2018-07-26T04:14:22.071Z,98340.54
2018-07-26T04:16:50.703Z,98339.70
2018-07-26T04:19:19.215Z,98341.20
2018-07-26T04:21:47.895Z,98344.37
2018-07-26T04:24:16.341Z,98349.06
2018-07-26T04:26:44.822Z,98351.77
2018-07-26T04:29:13.342Z,98354.10
2018-07-26T04:31:41.897Z,98350.34
2018-07-26T04:34:10.418Z,98347.64
2018-07-26T04:36:39.047Z,98353.41
2018-07-26T04:39:09.640Z,98356.50
2018-07-26T04:41:38.330Z,98361.26
2018-07-26T04:44:07.005Z,98360.19
2018-07-26T04:46:35.558Z,98354.94
2018-07-26T04:49:04.046Z,98354.95
2018-07-26T04:51:32.535Z,98362.84
2018-07-26T04:54:01.335Z,98365.18
2018-07-26T04:56:29.786Z,98368.20
2018-07-26T04:58:58.514Z,98368.82
2018-07-26T05:01:27.094Z,98364.05
2018-07-26T05:03:55.766Z,98364.95
2018-07-26T05:06:24.494Z,98371.38
2018-07-26T05:08:53.021Z,98372.92
2018-07-26T05:11:21.533Z,98369.78
2018-07-26T05:13:50.096Z,98378.84
2018-07-26T05:16:18.652Z,98373.60
2018-07-26T05:18:47.150Z,98376.22
2018-07-26T05:21:15.621Z,98374.38
2018-07-26T05:23:44.178Z,98376.34
2018-07-26T05:26:12.994Z,98383.55
2018-07-26T05:28:41.520Z,98379.87
2018-07-26T05:31:10.246Z,98383.41
2018-07-26T05:33:38.962Z,98380.94
2018-07-26T05:36:07.458Z,98380.42
2018-07-26T05:38:35.921Z,98384.02
2018-07-26T05:41:04.416Z,98378.64
2018-07-26T05:43:32.986Z,98376.48
2018-07-26T05:46:01.583Z,98378.80
2018-07-26T05:48:30.071Z,98380.74
2018-07-26T05:50:58.735Z,98382.47
2018-07-26T05:53:27.300Z,98382.89
2018-07-26T05:55:56.266Z,98380.50
2018-07-26T05:58:24.712Z,98391.45
2018-07-26T06:00:53.370Z,98387.20
2018-07-26T06:03:22.341Z,98391.75
2018-07-26T06:05:50.883Z,98391.98
2018-07-26T06:08:19.369Z,98391.50
2018-07-26T06:10:47.892Z,98395.30
2018-07-26T06:13:16.434Z,98399.41
2018-07-26T06:15:45.003Z,98400.82
2018-07-26T06:18:13.519Z,98403.72
2018-07-26T06:20:42.117Z,98402.37
2018-07-26T06:23:10.734Z,98399.67
2018-07-26T06:25:39.375Z,98394.22
2018-07-26T06:28:08.914Z,98389.33
2018-07-26T06:30:37.806Z,98394.38
2018-07-26T06:33:06.318Z,98392.80
2018-07-26T06:35:35.117Z,98385.48
2018-07-26T06:38:04.971Z,98392.13
2018-07-26T06:40:36.805Z,98398.22
2018-07-26T06:43:05.382Z,98397.47
2018-07-26T06:45:33.890Z,98397.69
2018-07-26T06:48:02.360Z,98395.38
2018-07-26T06:50:30.838Z,98393.34
2018-07-26T06:52:59.321Z,98392.38
2018-07-26T06:55:27.826Z,98397.17
2018-07-26T06:57:56.331Z,98401.16
2018-07-26T07:00:25.000Z,98396.91
2018-07-26T07:02:53.942Z,98397.39
2018-07-26T07:05:22.510Z,98395.09
2018-07-26T07:07:51.157Z,98401.01
2018-07-26T07:10:19.886Z,98401.97
2018-07-26T07:12:48.555Z,98397.11
2018-07-26T07:15:17.095Z,98403.50
2018-07-26T07:17:45.687Z,98410.07
2018-07-26T07:20:14.863Z,98407.06
2018-07-26T07:22:43.373Z,98404.56
2018-07-26T07:25:12.043Z,98403.52
2018-07-26T07:27:40.644Z,98405.39
2018-07-26T07:30:11.954Z,98404.17
2018-07-26T07:32:41.050Z,98405.33
2018-07-26T07:35:09.912Z,98410.75
2018-07-26T07:37:39.435Z,98403.41
2018-07-26T07:40:08.718Z,98406.22
2018-07-26T07:42:37.343Z,98398.80
2018-07-26T07:45:07.018Z,98395.50
2018-07-26T07:47:36.044Z,98395.47
2018-07-26T07:50:05.022Z,98400.63
2018-07-26T07:52:33.558Z,98390.37
2018-07-26T07:55:02.177Z,98394.08
2018-07-26T07:57:30.757Z,98386.98
2018-07-26T07:59:59.314Z,98390.43
2018-07-26T08:02:28.605Z,98395.38
2018-07-26T08:04:57.502Z,98389.91
2018-07-26T08:07:26.089Z,98391.73
2018-07-26T08:09:54.914Z,98395.08
2018-07-26T08:12:23.502Z,98392.81
2018-07-26T08:14:52.047Z,98393.73
2018-07-26T08:17:20.677Z,98390.64
2018-07-26T08:19:49.176Z,98400.27
2018-07-26T08:22:17.734Z,98397.42
2018-07-26T08:24:46.698Z,98394.75
2018-07-26T08:27:15.338Z,98395.44
2018-07-26T08:29:43.855Z,98386.31
2018-07-26T08:32:12.718Z,98384.30
2018-07-26T08:34:41.203Z,98376.33
2018-07-26T08:37:09.752Z,98384.73
2018-07-26T08:39:38.382Z,98383.01
2018-07-26T08:42:07.553Z,98377.23
2018-07-26T08:44:36.324Z,98379.65
2018-07-26T08:47:05.093Z,98374.22
2018-07-26T08:49:34.464Z,98376.20
2018-07-26T08:52:03.629Z,98371.70
2018-07-26T08:54:32.520Z,98367.17
2018-07-26T08:57:01.228Z,98366.95
2018-07-26T08:59:29.798Z,98368.50
2018-07-26T09:01:58.349Z,98365.78
2018-07-26T09:04:26.978Z,98364.81
2018-07-26T09:06:55.507Z,98371.69
2018-07-26T09:09:24.539Z,98362.53
2018-07-26T09:11:53.308Z,98360.41
2018-07-26T09:15:51.090Z,98359.95
2018-07-26T09:18:19.762Z,98368.44
2018-07-26T09:20:48.398Z,98361.64
2018-07-26T09:23:16.946Z,98354.53
2018-07-26T09:25:45.471Z,98358.53
2018-07-26T09:28:13.980Z,98351.08
2018-07-26T09:30:42.438Z,98353.45
2018-07-26T09:33:10.972Z,98346.99
2018-07-26T09:35:39.542Z,98349.11
2018-07-26T09:38:08.141Z,98348.13
2018-07-26T09:40:36.723Z,98336.04
2018-07-26T09:43:05.592Z,98336.70
2018-07-26T09:45:34.271Z,98342.55
2018-07-26T09:48:02.894Z,98332.55
2018-07-26T09:50:31.491Z,98337.00
2018-07-26T09:53:00.004Z,98330.23
2018-07-26T09:55:28.500Z,98331.67
2018-07-26T09:57:57.066Z,98332.95
2018-07-26T10:00:30.946Z,98324.55
2018-07-26T10:02:59.665Z,98325.70
2018-07-26T10:05:28.422Z,98322.83
2018-07-26T10:07:56.950Z,98319.68
2018-07-26T10:10:25.774Z,98317.60
2018-07-26T10:12:54.990Z,98313.67
2018-07-26T10:15:23.699Z,98316.67
2018-07-26T10:17:52.273Z,98313.84
2018-07-26T10:20:20.827Z,98307.17
2018-07-26T10:22:49.408Z,98303.59
2018-07-26T10:25:17.954Z,98299.66
2018-07-26T10:27:46.482Z,98298.66
2018-07-26T10:30:15.078Z,98296.75
2018-07-26T10:32:43.586Z,98296.75
2018-07-26T10:35:16.630Z,98296.19
2018-07-26T10:37:45.167Z,98290.41
2018-07-26T10:40:13.883Z,98291.42
2018-07-26T10:42:42.363Z,98289.95
2018-07-26T10:45:10.906Z,98284.89
2018-07-26T10:47:39.429Z,98282.66
2018-07-26T10:50:09.832Z,98281.91
2018-07-26T10:52:38.441Z,98282.91
2018-07-26T10:55:08.134Z,98284.09
2018-07-26T10:57:37.600Z,98282.03
2018-07-26T11:00:07.858Z,98269.89
2018-07-26T11:02:36.942Z,98266.98
2018-07-26T11:05:07.154Z,98267.78
2018-07-26T11:07:35.689Z,98267.55
2018-07-26T11:10:05.882Z,98263.14
2018-07-26T11:12:34.543Z,98262.61
2018-07-26T11:15:12.848Z,98261.83
2018-07-26T11:17:41.494Z,98253.67
2018-07-26T11:20:10.162Z,98264.07
2018-07-26T11:22:38.645Z,98267.20
2018-07-26T11:25:07.237Z,98263.08
2018-07-26T11:27:35.821Z,98261.77
2018-07-26T11:30:04.416Z,98252.83
2018-07-26T11:32:32.894Z,98256.31
2018-07-26T11:35:01.574Z,98249.67
2018-07-26T11:37:30.043Z,98247.05
2018-07-26T11:39:58.598Z,98245.00
2018-07-26T11:42:27.137Z,98237.42
2018-07-26T11:44:55.730Z,98232.70
2018-07-26T11:47:24.422Z,98228.56
2018-07-26T11:49:53.011Z,98229.14
2018-07-26T11:52:21.588Z,98228.52
2018-07-26T11:54:50.374Z,98230.75
2018-07-26T11:57:18.926Z,98231.92
2018-07-26T11:59:47.370Z,98231.30
2018-07-26T12:02:16.203Z,98218.00
2018-07-26T12:04:44.894Z,98218.59
2018-07-26T12:07:13.875Z,98213.95
2018-07-26T12:09:42.642Z,98223.11
2018-07-26T12:12:11.962Z,98219.59
2018-07-26T12:14:40.991Z,98223.55
2018-07-26T12:17:09.810Z,98224.28
2018-07-26T12:19:39.193Z,98206.46
2018-07-26T12:22:08.658Z,98213.10
2018-07-26T12:24:37.154Z,98209.96
2018-07-26T12:27:05.950Z,98199.27
2018-07-26T12:29:34.878Z,98203.07
2018-07-26T12:32:03.482Z,98194.26
2018-07-26T12:34:32.002Z,98193.06
2018-07-26T12:37:00.490Z,98191.47
2018-07-26T12:39:29.072Z,98198.22
2018-07-26T12:41:57.789Z,98199.56
2018-07-26T12:44:26.319Z,98192.56
2018-07-26T12:46:54.903Z,98194.11
2018-07-26T12:49:23.408Z,98189.61
2018-07-26T12:51:52.642Z,98177.24
2018-07-26T12:54:21.439Z,98183.59
2018-07-26T12:56:50.034Z,98179.97
2018-07-26T12:59:18.553Z,98181.66
2018-07-26T13:01:47.380Z,98167.09
2018-07-26T13:04:15.982Z,98162.67
2018-07-26T13:06:44.499Z,98161.01
2018-07-26T13:09:12.958Z,98165.09
2018-07-26T13:11:41.578Z,98157.27
2018-07-26T13:14:14.704Z,98146.67
2018-07-26T13:16:43.246Z,98143.03
2018-07-26T13:19:11.698Z,98143.27
2018-07-26T13:21:40.218Z,98141.77
2018-07-26T13:24:08.774Z,98128.61
2018-07-26T13:26:37.281Z,98133.66
2018-07-26T13:29:05.859Z,98133.29
2018-07-26T13:31:34.605Z,98127.24
2018-07-26T13:34:03.933Z,98131.03
2018-07-26T13:36:32.414Z,98131.56
2018-07-26T13:39:00.891Z,98131.97
2018-07-26T13:41:29.546Z,98124.45
2018-07-26T13:43:58.423Z,98121.11
2018-07-26T13:46:26.845Z,98119.60
2018-07-26T13:48:55.399Z,98121.44
2018-07-26T13:51:24.161Z,98122.83
2018-07-26T13:53:53.336Z,98116.13
2018-07-26T13:56:21.777Z,98121.13
2018-07-26T13:58:50.302Z,98124.30
2018-07-26T14:01:19.427Z,98111.63
2018-07-26T14:03:48.338Z,98120.34
2018-07-26T14:06:16.825Z,98112.55
2018-07-26T14:08:45.457Z,98116.30
2018-07-26T14:11:13.950Z,98101.58
2018-07-26T14:13:42.641Z,98103.98
2018-07-26T14:16:11.199Z,98106.98
2018-07-26T14:18:39.749Z,98112.23
2018-07-26T14:21:13.325Z,98105.80
2018-07-26T14:23:41.895Z,98108.36
2018-07-26T14:26:12.353Z,98100.41
2018-07-26T14:28:41.678Z,98098.82
2018-07-26T14:31:10.965Z,98091.88
2018-07-26T14:33:39.493Z,98103.08
2018-07-26T14:36:08.371Z,98099.85
2018-07-26T14:38:37.867Z,98105.88
2018-07-26T14:41:06.354Z,98103.87
2018-07-26T14:43:34.847Z,98106.22
2018-07-26T14:46:03.294Z,98104.81
2018-07-26T14:48:31.880Z,98104.06
2018-07-26T14:51:00.350Z,98109.64
2018-07-26T14:53:28.876Z,98108.59
2018-07-26T14:55:57.584Z,98100.83
2018-07-26T14:58:26.131Z,98107.77
2018-07-26T15:00:54.751Z,98100.28
2018-07-26T15:03:23.221Z,98102.16
2018-07-26T15:05:52.742Z,98098.48
2018-07-26T15:08:21.289Z,98099.72
2018-07-26T15:10:49.902Z,98091.05
2018-07-26T15:13:18.581Z,98083.98
2018-07-26T15:15:47.176Z,98090.55
2018-07-26T15:18:15.718Z,98083.66
2018-07-26T15:20:44.256Z,98087.31
2018-07-26T15:23:12.844Z,98086.89
2018-07-26T15:25:41.377Z,98083.91
2018-07-26T15:28:14.358Z,98079.99
2018-07-26T15:30:42.873Z,98086.49
2018-07-26T15:33:11.426Z,98078.78
2018-07-26T15:35:40.086Z,98074.67
2018-07-26T15:38:08.658Z,98070.41
2018-07-26T15:40:37.230Z,98058.67
2018-07-26T15:43:06.154Z,98052.16
2018-07-26T15:45:34.842Z,98047.02
2018-07-26T15:48:04.431Z,98047.51
2018-07-26T15:50:33.107Z,98049.78
2018-07-26T15:53:01.631Z,98053.12
2018-07-26T15:55:30.172Z,98050.38
2018-07-26T15:57:58.729Z,98050.16
2018-07-26T16:00:27.453Z,98058.66
2018-07-26T16:02:56.298Z,98058.21
2018-07-26T16:05:24.917Z,98055.75
2018-07-26T16:07:53.582Z,98052.60
2018-07-26T16:10:22.235Z,98050.66
2018-07-26T16:12:50.845Z,98043.17
2018-07-26T16:15:19.440Z,98045.28
2018-07-26T16:17:48.130Z,98039.50
2018-07-26T16:20:17.005Z,98035.20
2018-07-26T16:22:45.694Z,98043.27
2018-07-26T16:25:14.395Z,98040.11
2018-07-26T16:27:43.010Z,98040.47
2018-07-26T16:30:13.117Z,98040.11
2018-07-26T16:32:41.790Z,98041.75
2018-07-26T16:35:10.353Z,98044.36
2018-07-26T16:37:38.986Z,98038.84
2018-07-26T16:40:07.800Z,98042.54
2018-07-26T16:42:36.182Z,98054.19
2018-07-26T16:45:05.142Z,98059.32
2018-07-26T16:47:33.799Z,98054.84
2018-07-26T16:50:02.591Z,98058.64
2018-07-26T16:52:31.062Z,98054.41
2018-07-26T16:55:00.106Z,98055.02
2018-07-26T16:57:28.705Z,98056.28
2018-07-26T16:59:57.217Z,98063.45
2018-07-26T17:02:25.813Z,98058.27
2018-07-26T17:04:54.855Z,98057.50
2018-07-26T17:07:23.458Z,98054.34
2018-07-26T17:09:51.937Z,98055.38
2018-07-26T17:12:20.515Z,98054.02
2018-07-26T17:14:49.033Z,98055.30
2018-07-26T17:17:17.538Z,98058.83
2018-07-26T17:19:46.230Z,98052.77
2018-07-26T17:22:14.891Z,98052.69
2018-07-26T17:24:43.487Z,98040.45
2018-07-26T17:27:11.978Z,98039.07
2018-07-26T17:29:40.743Z,98047.30
2018-07-26T17:32:09.378Z,98040.58
2018-07-26T17:34:37.963Z,98042.59
2018-07-26T17:37:06.769Z,98038.39
2018-07-26T17:39:35.458Z,98041.78
2018-07-26T17:42:07.498Z,98046.38
2018-07-26T17:44:36.071Z,98052.91
2018-07-26T17:47:04.765Z,98049.28
2018-07-26T17:49:33.286Z,98049.87
2018-07-26T17:52:01.794Z,98047.89
2018-07-26T17:54:30.270Z,98048.27
2018-07-26T17:56:58.871Z,98049.40
2018-07-26T17:59:27.682Z,98055.31
2018-07-26T18:01:56.359Z,98055.00
2018-07-26T18:04:24.947Z,98054.41
2018-07-26T18:06:53.615Z,98051.90
2018-07-26T18:09:22.162Z,98053.97
2018-07-26T18:11:50.710Z,98054.05
2018-07-26T18:14:19.338Z,98054.05
2018-07-26T18:16:47.846Z,98066.23
2018-07-26T18:19:16.302Z,98063.99
2018-07-26T18:21:44.798Z,98066.09
2018-07-26T18:24:13.403Z,98063.44
2018-07-26T18:26:41.946Z,98070.16
2018-07-26T18:29:10.827Z,98074.11
2018-07-26T18:31:39.533Z,98072.74
2018-07-26T18:34:08.034Z,98074.70
2018-07-26T18:36:36.560Z,98079.41
2018-07-26T18:39:08.923Z,98088.01
2018-07-26T18:41:37.702Z,98083.30
2018-07-26T18:44:06.414Z,98085.47
2018-07-26T18:46:35.263Z,98093.18
2018-07-26T18:49:03.870Z,98092.06
2018-07-26T18:51:32.406Z,98093.38
2018-07-26T18:54:00.947Z,98096.95
2018-07-26T18:56:29.455Z,98104.06
2018-07-26T18:58:58.071Z,98100.48
2018-07-26T19:01:26.713Z,98104.31
2018-07-26T19:03:55.607Z,98107.86
2018-07-26T19:06:24.055Z,98118.22
2018-07-26T19:08:52.591Z,98117.34
2018-07-26T19:11:21.465Z,98121.56
2018-07-26T19:13:50.223Z,98127.77
2018-07-26T19:16:18.904Z,98133.78
2018-07-26T19:18:47.462Z,98141.67
2018-07-26T19:21:15.976Z,98143.46
2018-07-26T19:23:44.730Z,98143.97
2018-07-26T19:26:13.207Z,98148.65
2018-07-26T19:28:41.705Z,98149.93
2018-07-26T19:31:10.190Z,98154.19
2018-07-26T19:33:38.917Z,98155.13
2018-07-26T19:36:07.701Z,98157.30
2018-07-26T19:38:36.890Z,98161.83
2018-07-26T19:41:05.514Z,98156.44
2018-07-26T19:43:34.034Z,98156.60
2018-07-26T19:46:02.563Z,98166.17
2018-07-26T19:48:31.087Z,98162.59
2018-07-26T19:50:59.611Z,98168.59
2018-07-26T19:53:28.155Z,98169.75
2018-07-26T19:55:56.909Z,98171.22
2018-07-26T19:58:25.874Z,98177.70
2018-07-26T20:00:54.538Z,98174.86
2018-07-26T20:03:23.126Z,98178.41
2018-07-26T20:05:51.755Z,98176.02
2018-07-26T20:08:20.250Z,98179.48
2018-07-26T20:10:48.775Z,98180.66
2018-07-26T20:13:17.319Z,98181.80
2018-07-26T20:15:45.822Z,98176.97
2018-07-26T20:18:14.350Z,98178.07
2018-07-26T20:20:42.904Z,98175.32
2018-07-26T20:23:11.699Z,98184.28
2018-07-26T20:25:41.607Z,98180.97
2018-07-26T20:28:10.823Z,98182.18
2018-07-26T20:30:39.394Z,98190.45
2018-07-26T20:33:07.961Z,98187.90
2018-07-26T20:35:36.446Z,98195.52
2018-07-26T20:38:05.075Z,98202.16
2018-07-26T20:40:33.618Z,98206.41
2018-07-26T20:43:02.877Z,98209.66
2018-07-26T20:45:31.543Z,98209.44
2018-07-26T20:48:00.162Z,98203.53
2018-07-26T20:50:28.809Z,98212.76
2018-07-26T20:52:57.543Z,98212.05
2018-07-26T20:55:26.031Z,98216.17
2018-07-26T20:57:54.777Z,98213.50
2018-07-26T21:00:23.446Z,98209.11
2018-07-26T21:02:52.031Z,98213.38
2018-07-26T21:05:20.627Z,98208.02
2018-07-26T21:07:49.163Z,98212.23
2018-07-26T21:10:19.201Z,98214.53
2018-07-26T21:12:47.747Z,98224.17
2018-07-26T21:15:16.258Z,98223.36
2018-07-26T21:17:45.114Z,98217.91
2018-07-26T21:20:13.648Z,98228.30
2018-07-26T21:22:42.393Z,98222.58
2018-07-26T21:25:10.933Z,98229.03
2018-07-26T21:27:39.960Z,98234.09
2018-07-26T21:30:08.647Z,98234.97
2018-07-26T21:32:37.657Z,98229.32
2018-07-26T21:35:07.397Z,98235.95
2018-07-26T21:37:36.138Z,98228.94
2018-07-26T21:40:05.670Z,98236.78
2018-07-26T21:42:34.266Z,98230.59
2018-07-26T21:45:02.820Z,98237.52
2018-07-26T21:47:31.328Z,98240.00
2018-07-26T21:50:00.145Z,98241.80
2018-07-26T21:52:28.714Z,98243.30
2018-07-26T21:54:57.247Z,98243.78
2018-07-26T21:57:26.125Z,98247.41
2018-07-26T21:59:54.946Z,98243.32
2018-07-26T22:02:23.711Z,98242.66
2018-07-26T22:04:52.193Z,98245.00
2018-07-26T22:07:20.979Z,98248.14
2018-07-26T22:09:49.487Z,98252.14
2018-07-26T22:12:18.406Z,98249.62
2018-07-26T22:14:47.009Z,98252.09
2018-07-26T22:17:15.596Z,98252.86
2018-07-26T22:19:44.267Z,98250.30
2018-07-26T22:22:12.858Z,98257.78
2018-07-26T22:24:41.373Z,98255.65
2018-07-26T22:27:09.916Z,98259.66
2018-07-26T22:29:38.465Z,98252.10
2018-07-26T22:32:07.057Z,98251.34
2018-07-26T22:34:35.856Z,98248.09
2018-07-26T22:37:04.547Z,98256.52
2018-07-26T22:39:33.109Z,98240.62
2018-07-26T22:42:01.564Z,98241.89
2018-07-26T22:44:30.343Z,98245.05
2018-07-26T22:46:58.918Z,98239.38
2018-07-26T22:49:27.587Z,98246.83
2018-07-26T22:51:56.218Z,98244.05
2018-07-26T22:54:24.781Z,98242.14
2018-07-26T22:56:53.347Z,98237.78
2018-07-26T22:59:21.922Z,98236.36
2018-07-26T23:01:50.446Z,98229.59
2018-07-26T23:04:19.037Z,98236.45
2018-07-26T23:06:47.626Z,98234.52
2018-07-26T23:09:16.171Z,98236.30
2018-07-26T23:11:44.700Z,98234.91
2018-07-26T23:14:13.183Z,98232.61
2018-07-26T23:16:42.114Z,98228.97
2018-07-26T23:19:10.698Z,98233.95
2018-07-26T23:21:39.297Z,98234.38
2018-07-26T23:24:09.582Z,98239.61
2018-07-26T23:26:38.486Z,98242.13
2018-07-26T23:29:07.517Z,98246.56
2018-07-26T23:31:36.002Z,98249.06
2018-07-26T23:34:04.891Z,98253.16
2018-07-26T23:36:33.378Z,98248.35
2018-07-26T23:39:02.173Z,98253.61
2018-07-26T23:41:30.711Z,98244.31
2018-07-26T23:43:59.345Z,98247.29
2018-07-26T23:46:27.925Z,98247.13
2018-07-26T23:48:56.487Z,98253.06
2018-07-26T23:51:25.026Z,98256.08
2018-07-26T23:53:53.529Z,98250.86
2018-07-26T23:56:22.213Z,98252.36
2018-07-26T23:58:50.786Z,98254.66
